createdAt,value
2019-02-27T00:02:03.114Z,3.00
2019-02-27T00:04:35.729Z,3.00
2019-02-27T00:07:08.291Z,3.20
2019-02-27T00:09:40.853Z,3.00
2019-02-27T00:12:13.418Z,2.60
2019-02-27T00:14:46.006Z,4.00
2019-02-27T00:17:18.837Z,3.00
2019-02-27T00:19:51.488Z,3.20
2019-02-27T00:22:24.107Z,3.00
2019-02-27T00:24:56.597Z,3.00
2019-02-27T00:27:29.317Z,2.00
2019-02-27T00:30:04.537Z,3.00
2019-02-27T00:32:36.850Z,3.00
2019-02-27T00:35:09.352Z,2.80
2019-02-27T00:37:41.826Z,2.00
2019-02-27T00:40:14.688Z,2.00
2019-02-27T00:42:47.053Z,2.00
2019-02-27T00:45:19.439Z,2.00
2019-02-27T00:47:53.242Z,2.00
2019-02-27T00:50:25.631Z,2.60
2019-02-27T00:52:58.013Z,1.00
2019-02-27T00:55:30.437Z,1.80
2019-02-27T00:58:02.828Z,2.20
2019-02-27T01:00:39.077Z,2.80
2019-02-27T01:03:09.198Z,3.00
2019-02-27T01:05:41.751Z,2.20
2019-02-27T01:08:14.338Z,2.00
2019-02-27T01:10:47.014Z,1.40
2019-02-27T01:13:19.467Z,2.00
2019-02-27T01:15:51.928Z,2.20
2019-02-27T01:18:24.311Z,3.00
2019-02-27T01:20:56.795Z,2.60
2019-02-27T01:23:30.345Z,1.60
2019-02-27T01:26:02.745Z,1.00
2019-02-27T01:28:36.013Z,0.60
2019-02-27T01:31:08.738Z,1.00
2019-02-27T01:33:41.112Z,2.00
2019-02-27T01:36:13.597Z,2.00
2019-02-27T01:38:45.953Z,2.00
2019-02-27T01:41:18.725Z,2.00
2019-02-27T01:43:51.253Z,1.00
2019-02-27T01:46:25.170Z,1.60
2019-02-27T01:48:57.774Z,1.00
2019-02-27T01:51:31.164Z,1.60
2019-02-27T01:54:03.630Z,2.00
2019-02-27T01:56:36.162Z,1.60
2019-02-27T01:59:09.517Z,2.00
2019-02-27T02:01:42.020Z,1.40
2019-02-27T02:04:14.685Z,1.20
2019-02-27T02:06:47.748Z,1.00
2019-02-27T02:09:34.211Z,2.00
2019-02-27T02:12:12.677Z,1.40
2019-02-27T02:14:54.158Z,1.00
2019-02-27T02:17:40.997Z,0.80
2019-02-27T02:20:17.658Z,0.00
2019-02-27T02:22:55.382Z,1.00
2019-02-27T02:25:47.391Z,1.00
2019-02-27T02:28:38.949Z,2.00
2019-02-27T02:31:13.821Z,0.25
2019-02-27T02:33:51.756Z,0.00
2019-02-27T02:36:26.984Z,0.00
2019-02-27T02:39:19.719Z,0.80
2019-02-27T02:42:06.243Z,0.00
2019-02-27T02:44:46.975Z,0.00
2019-02-27T02:47:56.865Z,0.00
2019-02-27T02:50:34.942Z,0.00
2019-02-27T02:53:12.359Z,0.00
2019-02-27T02:56:11.530Z,0.00
2019-02-27T02:59:15.850Z,0.00
2019-02-27T03:01:53.544Z,0.60
2019-02-27T03:04:50.633Z,0.00
2019-02-27T03:07:47.970Z,0.00
2019-02-27T03:10:34.508Z,0.00
2019-02-27T03:13:30.468Z,0.00
2019-02-27T03:16:08.317Z,0.00
2019-02-27T03:18:52.393Z,0.00
2019-02-27T03:21:33.288Z,0.00
2019-02-27T03:24:14.052Z,0.00
2019-02-27T03:27:00.907Z,0.00
2019-02-27T03:29:41.716Z,1.00
2019-02-27T03:32:19.263Z,0.00
2019-02-27T03:35:12.300Z,0.00
2019-02-27T03:38:02.154Z,0.00
2019-02-27T03:40:55.080Z,0.00
2019-02-27T03:43:48.197Z,0.00
2019-02-27T03:46:41.998Z,0.00
2019-02-27T03:49:19.805Z,0.00
2019-02-27T03:52:13.711Z,0.00
2019-02-27T03:54:58.042Z,0.00
2019-02-27T03:57:58.022Z,0.00
2019-02-27T04:00:45.190Z,0.00
2019-02-27T04:03:28.902Z,0.20
2019-02-27T04:06:06.783Z,0.40
2019-02-27T04:08:54.990Z,4.40
2019-02-27T04:11:28.594Z,23.40
2019-02-27T04:14:05.038Z,53.75
2019-02-27T04:16:34.937Z,109.25
2019-02-27T04:19:07.489Z,153.50
2019-02-27T04:21:40.176Z,175.00
2019-02-27T04:24:12.452Z,190.00
2019-02-27T04:26:44.792Z,191.00
2019-02-27T04:29:17.303Z,179.75
2019-02-27T04:31:49.915Z,175.00
2019-02-27T04:34:22.327Z,163.25
2019-02-27T04:36:54.539Z,158.75
2019-02-27T04:39:26.803Z,148.75
2019-02-27T04:41:59.202Z,149.50
2019-02-27T04:44:31.509Z,135.00
2019-02-27T04:47:04.473Z,134.50
2019-02-27T04:49:37.813Z,125.25
2019-02-27T04:52:10.747Z,141.75
2019-02-27T04:54:43.160Z,178.75
2019-02-27T04:57:15.623Z,254.25
2019-02-27T04:59:49.778Z,341.80
2019-02-27T05:02:21.707Z,380.40
2019-02-27T05:04:54.124Z,319.00
2019-02-27T05:07:26.367Z,257.75
2019-02-27T05:09:58.760Z,225.50
2019-02-27T05:12:31.046Z,193.75
2019-02-27T05:15:04.077Z,168.25
2019-02-27T05:17:37.516Z,165.75
2019-02-27T05:20:12.479Z,132.25
2019-02-27T05:22:44.499Z,132.00
2019-02-27T05:25:16.773Z,104.25
2019-02-27T05:27:49.000Z,105.00
2019-02-27T05:30:21.613Z,89.25
2019-02-27T05:32:54.380Z,90.00
2019-02-27T05:35:26.717Z,90.50
2019-02-27T05:37:59.047Z,92.50
2019-02-27T05:40:31.325Z,95.25
2019-02-27T05:43:04.594Z,92.50
2019-02-27T05:45:36.793Z,88.25
2019-02-27T05:48:09.155Z,93.25
2019-02-27T05:50:41.493Z,96.50
2019-02-27T05:53:13.794Z,89.50
2019-02-27T05:55:46.123Z,86.75
2019-02-27T05:58:22.882Z,83.25
2019-02-27T06:00:52.319Z,85.25
2019-02-27T06:03:24.565Z,82.00
2019-02-27T06:05:57.012Z,85.00
2019-02-27T06:08:29.240Z,88.75
2019-02-27T06:11:01.682Z,87.75
2019-02-27T06:13:33.965Z,77.00
2019-02-27T06:16:09.196Z,79.75
2019-02-27T06:18:43.403Z,75.50
2019-02-27T06:21:16.394Z,81.75
2019-02-27T06:23:49.994Z,81.50
2019-02-27T06:26:22.515Z,80.00
2019-02-27T06:28:54.747Z,83.75
2019-02-27T06:31:27.429Z,84.25
2019-02-27T06:33:59.805Z,74.75
2019-02-27T06:36:33.004Z,69.00
2019-02-27T06:39:08.671Z,72.25
2019-02-27T06:41:40.594Z,72.00
2019-02-27T06:44:12.885Z,74.25
2019-02-27T06:46:45.081Z,69.25
2019-02-27T06:49:18.222Z,68.75
2019-02-27T06:51:50.636Z,68.00
2019-02-27T06:54:23.854Z,64.00
2019-02-27T06:56:56.032Z,68.50
2019-02-27T06:59:28.713Z,63.75
2019-02-27T07:02:00.991Z,60.75
2019-02-27T07:04:33.397Z,62.25
2019-02-27T07:07:05.601Z,61.50
2019-02-27T07:09:37.883Z,58.50
2019-02-27T07:12:10.039Z,59.50
2019-02-27T07:14:42.219Z,56.25
2019-02-27T07:17:14.374Z,58.75
2019-02-27T07:19:47.395Z,55.25
2019-02-27T07:22:20.542Z,58.00
2019-02-27T07:24:52.892Z,55.25
2019-02-27T07:27:31.281Z,53.50
2019-02-27T07:30:07.427Z,51.25
2019-02-27T07:32:39.798Z,53.75
2019-02-27T07:35:13.091Z,52.25
2019-02-27T07:37:47.967Z,52.50
2019-02-27T07:40:22.439Z,52.00
2019-02-27T07:42:54.726Z,54.00
2019-02-27T07:45:26.997Z,50.25
2019-02-27T07:47:59.499Z,50.25
2019-02-27T07:50:32.607Z,48.25
2019-02-27T07:53:04.949Z,51.25
2019-02-27T07:55:37.708Z,49.25
2019-02-27T07:58:10.662Z,50.00
2019-02-27T08:00:42.949Z,50.25
2019-02-27T08:03:15.147Z,50.25
2019-02-27T08:05:47.387Z,47.75
2019-02-27T08:08:23.302Z,48.50
2019-02-27T08:10:53.412Z,48.75
2019-02-27T08:13:27.047Z,46.00
2019-02-27T08:15:59.597Z,47.75
2019-02-27T08:18:36.704Z,44.75
2019-02-27T08:21:05.911Z,45.25
2019-02-27T08:23:38.513Z,47.25
2019-02-27T08:26:10.703Z,44.50
2019-02-27T08:28:42.869Z,43.50
2019-02-27T08:31:15.079Z,43.50
2019-02-27T08:33:47.544Z,43.25
2019-02-27T08:36:20.055Z,38.50
2019-02-27T08:38:52.242Z,32.25
2019-02-27T08:41:24.701Z,32.40
2019-02-27T08:43:56.890Z,26.40
2019-02-27T08:46:29.131Z,19.40
2019-02-27T08:49:01.307Z,19.00
2019-02-27T08:51:33.698Z,17.80
2019-02-27T08:54:06.011Z,20.80
2019-02-27T08:56:38.440Z,17.60
2019-02-27T08:59:10.632Z,20.00
2019-02-27T09:01:43.949Z,18.20
2019-02-27T09:04:16.143Z,19.60
2019-02-27T09:06:48.355Z,20.80
2019-02-27T09:09:20.650Z,17.40
2019-02-27T09:11:53.264Z,20.20
2019-02-27T09:14:25.917Z,18.40
2019-02-27T09:16:58.406Z,19.40
2019-02-27T09:19:30.953Z,18.40
2019-02-27T09:22:03.822Z,18.80
2019-02-27T09:24:36.724Z,15.80
2019-02-27T09:27:09.370Z,15.20
2019-02-27T09:29:41.537Z,15.00
2019-02-27T09:32:13.757Z,17.00
2019-02-27T09:34:46.176Z,17.00
2019-02-27T09:37:18.697Z,16.00
2019-02-27T09:39:50.993Z,13.40
2019-02-27T09:42:23.436Z,15.00
2019-02-27T09:44:55.798Z,13.00
2019-02-27T09:47:28.198Z,13.40
2019-02-27T09:50:00.470Z,13.00
2019-02-27T09:52:33.054Z,11.40
2019-02-27T09:55:06.013Z,12.60
2019-02-27T09:57:38.741Z,13.20
2019-02-27T10:00:35.761Z,13.20
2019-02-27T10:03:08.360Z,11.20
2019-02-27T10:05:40.991Z,11.60
2019-02-27T10:08:13.828Z,13.20
2019-02-27T10:10:46.212Z,10.60
2019-02-27T10:13:18.585Z,8.00
2019-02-27T10:15:50.762Z,11.00
2019-02-27T10:18:23.160Z,11.00
2019-02-27T10:20:55.535Z,5.00
2019-02-27T10:23:30.476Z,5.40
2019-02-27T10:26:01.970Z,5.60
2019-02-27T10:28:38.793Z,4.00
2019-02-27T10:31:08.163Z,4.00
2019-02-27T10:33:42.981Z,4.00
2019-02-27T10:36:16.189Z,4.60
2019-02-27T10:38:56.675Z,4.60
2019-02-27T10:41:24.167Z,3.20
2019-02-27T10:43:57.298Z,4.00
2019-02-27T10:46:30.015Z,4.00
2019-02-27T10:49:02.875Z,4.00
2019-02-27T10:51:35.335Z,0.80
2019-02-27T10:54:07.884Z,3.60
2019-02-27T10:56:40.663Z,3.80
2019-02-27T10:59:13.045Z,1.00
2019-02-27T11:01:45.813Z,4.00
2019-02-27T11:04:18.201Z,3.00
2019-02-27T11:06:50.650Z,2.00
2019-02-27T11:09:24.975Z,3.00
2019-02-27T11:11:57.657Z,3.60
2019-02-27T11:14:31.972Z,2.60
2019-02-27T11:17:03.904Z,2.00
2019-02-27T11:19:36.311Z,2.60
2019-02-27T11:22:08.831Z,4.80
2019-02-27T11:24:41.467Z,3.00
2019-02-27T11:27:13.830Z,3.80
2019-02-27T11:29:46.427Z,3.00
2019-02-27T11:32:22.984Z,3.00
2019-02-27T11:34:52.870Z,2.00
2019-02-27T11:37:25.938Z,2.00
2019-02-27T11:39:58.495Z,1.80
2019-02-27T11:42:32.005Z,2.00
2019-02-27T11:45:05.300Z,2.00
2019-02-27T11:47:37.959Z,2.20
2019-02-27T11:50:18.001Z,1.00
2019-02-27T11:52:50.514Z,1.60
2019-02-27T11:55:26.082Z,1.00
2019-02-27T11:57:58.758Z,1.20
2019-02-27T12:00:31.529Z,1.40
2019-02-27T12:03:04.240Z,1.00
2019-02-27T12:05:36.717Z,0.80
2019-02-27T12:08:09.080Z,1.00
2019-02-27T12:10:41.443Z,0.00
2019-02-27T12:13:13.835Z,0.00
2019-02-27T12:15:46.506Z,0.00
2019-02-27T12:18:18.951Z,0.00
2019-02-27T12:20:53.953Z,0.00
2019-02-27T12:23:25.209Z,1.00
2019-02-27T12:25:59.933Z,0.00
2019-02-27T12:28:31.777Z,0.00
2019-02-27T12:31:04.439Z,1.00
2019-02-27T12:33:39.385Z,0.00
2019-02-27T12:36:11.872Z,0.40
2019-02-27T12:38:44.833Z,0.20
2019-02-27T12:41:17.549Z,0.00
2019-02-27T12:43:52.731Z,1.00
2019-02-27T12:46:23.710Z,0.00
2019-02-27T12:48:57.164Z,0.60
2019-02-27T12:51:29.936Z,0.00
2019-02-27T12:54:02.318Z,0.00
2019-02-27T12:56:34.712Z,0.00
2019-02-27T12:59:07.170Z,0.00
2019-02-27T13:01:39.917Z,0.00
2019-02-27T13:04:16.111Z,0.20
2019-02-27T13:06:46.065Z,0.00
2019-02-27T13:09:18.617Z,0.00
2019-02-27T13:11:50.973Z,0.00
2019-02-27T13:14:23.325Z,0.00
2019-02-27T13:16:55.781Z,0.00
2019-02-27T13:19:28.135Z,0.00
2019-02-27T13:22:00.610Z,0.00
2019-02-27T13:24:32.970Z,0.00
2019-02-27T13:27:09.058Z,0.00
2019-02-27T13:29:39.436Z,0.00
2019-02-27T13:32:11.812Z,0.00
2019-02-27T13:34:45.351Z,0.00
2019-02-27T13:37:18.710Z,0.00
2019-02-27T13:39:51.695Z,0.00
2019-02-27T13:42:24.245Z,0.00
2019-02-27T13:44:56.933Z,0.00
2019-02-27T13:47:31.077Z,0.00
2019-02-27T13:50:04.435Z,0.00
2019-02-27T13:52:36.857Z,0.00
2019-02-27T13:55:12.011Z,0.00
2019-02-27T13:57:44.472Z,0.00
2019-02-27T14:00:21.030Z,0.00
2019-02-27T14:02:54.069Z,0.00
2019-02-27T14:05:29.396Z,0.00
2019-02-27T14:08:01.532Z,0.00
2019-02-27T14:10:34.973Z,0.00
2019-02-27T14:13:09.765Z,0.00
2019-02-27T14:15:41.514Z,0.00
2019-02-27T14:18:16.190Z,0.00
2019-02-27T14:20:47.837Z,0.00
2019-02-27T14:23:21.307Z,0.00
2019-02-27T14:25:53.892Z,0.00
2019-02-27T14:28:26.642Z,0.00
2019-02-27T14:30:59.011Z,0.00
2019-02-27T14:33:31.387Z,0.00
2019-02-27T14:36:08.152Z,0.00
2019-02-27T14:38:38.155Z,0.00
2019-02-27T14:41:14.220Z,0.00
2019-02-27T14:43:45.274Z,0.00
2019-02-27T14:46:17.943Z,0.00
2019-02-27T14:48:52.436Z,0.00
2019-02-27T14:51:24.926Z,0.00
2019-02-27T14:53:57.309Z,0.00
2019-02-27T14:56:29.678Z,0.00
2019-02-27T14:59:02.057Z,0.00
2019-02-27T15:01:34.407Z,0.00
2019-02-27T15:04:06.963Z,0.00
2019-02-27T15:06:39.291Z,0.00
2019-02-27T15:09:11.742Z,0.00
2019-02-27T15:11:44.924Z,0.00
2019-02-27T15:14:18.388Z,0.00
2019-02-27T15:16:50.764Z,0.00
2019-02-27T15:19:23.260Z,1.20
2019-02-27T15:21:56.023Z,1.40
2019-02-27T15:24:28.520Z,1.80
2019-02-27T15:27:00.926Z,1.00
2019-02-27T15:29:33.610Z,2.00
2019-02-27T15:32:06.272Z,2.00
2019-02-27T15:34:38.636Z,4.20
2019-02-27T15:37:11.033Z,4.20
2019-02-27T15:39:43.806Z,4.00
2019-02-27T15:42:17.365Z,4.20
2019-02-27T15:44:49.938Z,4.00
2019-02-27T15:47:22.317Z,15.60
2019-02-27T15:49:55.846Z,10.40
2019-02-27T15:52:28.225Z,25.80
2019-02-27T15:55:00.526Z,23.80
2019-02-27T15:57:34.086Z,35.20
2019-02-27T16:00:12.351Z,36.00
2019-02-27T16:02:43.343Z,51.75
2019-02-27T16:05:16.559Z,61.75
2019-02-27T16:07:49.809Z,68.75
2019-02-27T16:10:23.627Z,83.25
2019-02-27T16:13:00.036Z,79.75
2019-02-27T16:15:30.131Z,90.50
2019-02-27T16:18:04.644Z,83.25
2019-02-27T16:20:36.685Z,75.00
2019-02-27T16:23:08.984Z,75.00
2019-02-27T16:25:41.131Z,69.50
2019-02-27T16:28:16.447Z,68.25
2019-02-27T16:30:47.191Z,71.00
2019-02-27T16:33:23.802Z,68.50
2019-02-27T16:35:53.353Z,66.25
2019-02-27T16:38:28.427Z,56.75
2019-02-27T16:40:59.907Z,56.50
2019-02-27T16:43:33.334Z,54.00
2019-02-27T16:46:08.543Z,55.75
2019-02-27T16:48:40.217Z,53.25
2019-02-27T16:51:12.391Z,53.00
2019-02-27T16:53:44.565Z,54.00
2019-02-27T16:56:17.657Z,53.00
2019-02-27T16:58:49.850Z,51.50
2019-02-27T17:01:22.182Z,51.75
2019-02-27T17:04:00.173Z,51.50
2019-02-27T17:06:29.037Z,48.25
2019-02-27T17:09:01.437Z,47.50
2019-02-27T17:11:35.056Z,49.25
2019-02-27T17:14:07.542Z,47.25
2019-02-27T17:16:44.643Z,47.75
2019-02-27T17:19:14.644Z,47.75
2019-02-27T17:21:46.822Z,47.50
2019-02-27T17:24:21.865Z,46.00
2019-02-27T17:26:53.898Z,44.00
2019-02-27T17:29:26.749Z,44.50
2019-02-27T17:31:59.043Z,44.00
2019-02-27T17:34:31.317Z,42.50
2019-02-27T17:37:06.346Z,44.75
2019-02-27T17:39:39.164Z,43.75
2019-02-27T17:42:11.602Z,43.25
2019-02-27T17:44:44.144Z,42.00
2019-02-27T17:47:16.651Z,43.25
2019-02-27T17:49:48.847Z,37.00
2019-02-27T17:52:21.017Z,41.25
2019-02-27T17:54:53.206Z,40.50
2019-02-27T17:57:25.360Z,41.75
2019-02-27T17:59:57.560Z,37.25
2019-02-27T18:02:30.164Z,38.50
2019-02-27T18:05:03.664Z,39.75
2019-02-27T18:07:36.919Z,38.00
2019-02-27T18:10:16.148Z,38.25
2019-02-27T18:12:48.332Z,37.25
2019-02-27T18:15:23.278Z,36.50
2019-02-27T18:17:55.608Z,35.80
2019-02-27T18:20:27.838Z,31.60
2019-02-27T18:23:01.132Z,37.50
2019-02-27T18:25:33.542Z,33.25
2019-02-27T18:28:05.853Z,35.20
2019-02-27T18:30:38.292Z,34.40
2019-02-27T18:33:13.581Z,33.40
2019-02-27T18:35:45.898Z,30.80
2019-02-27T18:38:19.186Z,33.80
2019-02-27T18:40:51.402Z,31.40
2019-02-27T18:43:23.743Z,34.20
2019-02-27T18:45:57.672Z,33.20
2019-02-27T18:48:30.245Z,28.60
2019-02-27T18:51:02.584Z,31.20
2019-02-27T18:53:34.983Z,30.00
2019-02-27T18:56:09.445Z,29.80
2019-02-27T18:58:41.911Z,31.40
2019-02-27T19:01:14.549Z,27.40
2019-02-27T19:03:46.928Z,32.00
2019-02-27T19:06:19.175Z,27.20
2019-02-27T19:08:51.371Z,26.20
2019-02-27T19:11:25.981Z,28.40
2019-02-27T19:14:02.462Z,26.80
2019-02-27T19:16:34.620Z,24.80
2019-02-27T19:19:08.007Z,27.40
2019-02-27T19:21:40.339Z,27.00
2019-02-27T19:24:12.579Z,25.60
2019-02-27T19:26:45.889Z,24.40
2019-02-27T19:29:18.187Z,25.00
2019-02-27T19:31:51.885Z,22.60
2019-02-27T19:34:24.153Z,28.00
2019-02-27T19:36:56.370Z,23.00
2019-02-27T19:39:28.667Z,22.80
2019-02-27T19:42:00.967Z,26.00
2019-02-27T19:44:33.144Z,21.00
2019-02-27T19:47:06.027Z,21.20
2019-02-27T19:49:38.775Z,24.80
2019-02-27T19:52:10.982Z,19.40
2019-02-27T19:54:44.152Z,20.00
2019-02-27T19:57:16.585Z,21.40
2019-02-27T19:59:48.781Z,21.80
2019-02-27T20:02:21.702Z,24.60
2019-02-27T20:04:54.478Z,19.00
2019-02-27T20:07:26.957Z,22.40
2019-02-27T20:09:59.659Z,19.60
2019-02-27T20:12:31.970Z,21.60
2019-02-27T20:15:08.306Z,18.80
2019-02-27T20:17:41.106Z,18.40
2019-02-27T20:20:15.491Z,14.40
2019-02-27T20:22:50.357Z,16.60
2019-02-27T20:25:23.454Z,18.60
2019-02-27T20:27:58.031Z,16.40
2019-02-27T20:30:29.818Z,15.20
2019-02-27T20:33:02.535Z,19.00
2019-02-27T20:35:35.512Z,18.80
2019-02-27T20:38:08.113Z,18.00
2019-02-27T20:40:40.419Z,18.00
2019-02-27T20:43:12.639Z,16.60
2019-02-27T20:45:44.922Z,18.60
2019-02-27T20:48:17.782Z,12.40
2019-02-27T20:51:02.731Z,19.20
2019-02-27T20:53:35.304Z,14.20
2019-02-27T20:56:07.802Z,16.80
2019-02-27T20:58:40.341Z,15.40
2019-02-27T21:01:13.877Z,15.40
2019-02-27T21:03:46.363Z,15.20
2019-02-27T21:06:18.800Z,16.60
2019-02-27T21:08:51.197Z,15.80
2019-02-27T21:11:23.395Z,14.20
2019-02-27T21:13:56.091Z,13.60
2019-02-27T21:16:28.279Z,12.60
2019-02-27T21:19:02.571Z,14.60
2019-02-27T21:21:34.847Z,14.60
2019-02-27T21:24:07.075Z,13.40
2019-02-27T21:26:39.242Z,15.40
2019-02-27T21:29:11.467Z,14.00
2019-02-27T21:31:44.181Z,12.80
2019-02-27T21:34:20.037Z,14.00
2019-02-27T21:36:50.937Z,12.80
2019-02-27T21:39:25.208Z,12.40
2019-02-27T21:41:58.055Z,15.00
2019-02-27T21:44:30.356Z,13.40
2019-02-27T21:47:02.647Z,11.60
2019-02-27T21:49:35.303Z,12.20
2019-02-27T21:52:09.271Z,13.60
2019-02-27T21:54:41.651Z,14.40
2019-02-27T21:57:13.932Z,12.00
2019-02-27T21:59:46.175Z,12.00
2019-02-27T22:02:18.482Z,12.00
2019-02-27T22:04:50.694Z,11.00
2019-02-27T22:07:23.100Z,13.00
2019-02-27T22:09:56.777Z,12.40
2019-02-27T22:12:29.091Z,13.20
2019-02-27T22:15:01.873Z,11.00
2019-02-27T22:17:36.642Z,10.00
2019-02-27T22:20:09.643Z,13.00
2019-02-27T22:22:42.464Z,9.80
2019-02-27T22:25:14.806Z,11.80
2019-02-27T22:27:47.093Z,11.00
2019-02-27T22:30:20.305Z,11.00
2019-02-27T22:32:52.701Z,10.60
2019-02-27T22:35:24.971Z,10.40
2019-02-27T22:37:57.172Z,11.80
2019-02-27T22:40:29.371Z,11.00
2019-02-27T22:43:01.754Z,9.40
2019-02-27T22:45:36.083Z,11.60
2019-02-27T22:48:07.914Z,11.60
2019-02-27T22:50:41.247Z,8.80
2019-02-27T22:53:14.697Z,9.20
2019-02-27T22:55:46.890Z,11.00
2019-02-27T22:58:19.813Z,10.00
2019-02-27T23:00:56.625Z,9.00
2019-02-27T23:03:32.787Z,10.00
2019-02-27T23:06:05.708Z,9.00
2019-02-27T23:08:38.217Z,9.20
2019-02-27T23:11:10.819Z,10.40
2019-02-27T23:13:47.434Z,10.00
2019-02-27T23:16:20.409Z,9.40
2019-02-27T23:18:52.673Z,11.00
2019-02-27T23:21:26.645Z,9.00
2019-02-27T23:23:59.257Z,8.60
2019-02-27T23:26:31.854Z,10.00
2019-02-27T23:29:05.540Z,7.60
2019-02-27T23:31:38.877Z,8.00
2019-02-27T23:34:11.373Z,7.40
2019-02-27T23:36:43.733Z,9.40
2019-02-27T23:39:16.390Z,7.40
2019-02-27T23:41:48.819Z,7.80
2019-02-27T23:44:21.211Z,8.00
2019-02-27T23:46:57.116Z,6.60
2019-02-27T23:49:27.466Z,7.20
2019-02-27T23:52:00.074Z,8.40
2019-02-27T23:54:35.809Z,7.00
2019-02-27T23:57:07.379Z,6.60
2019-02-27T23:59:39.778Z,7.20
